createdAt,value
2023-01-22T00:00:20.825Z,1.91
2023-01-22T00:02:52.549Z,1.94
2023-01-22T00:05:24.273Z,1.92
2023-01-22T00:07:56.150Z,1.94
2023-01-22T00:10:27.793Z,1.95
2023-01-22T00:12:59.776Z,1.90
2023-01-22T00:15:31.498Z,1.91
2023-01-22T00:18:03.243Z,1.94
2023-01-22T00:20:34.948Z,1.93
2023-01-22T00:23:06.961Z,1.92
2023-01-22T00:25:38.581Z,1.94
2023-01-22T00:28:14.228Z,1.86
2023-01-22T00:30:45.920Z,1.84
2023-01-22T00:33:21.592Z,1.87
2023-01-22T00:35:53.422Z,1.95
2023-01-22T00:38:26.578Z,1.94
2023-01-22T00:41:02.305Z,1.97
2023-01-22T00:43:38.554Z,1.91
2023-01-22T00:46:12.711Z,1.90
2023-01-22T00:48:49.684Z,1.87
2023-01-22T00:51:21.385Z,1.84
2023-01-22T00:53:53.109Z,1.78
2023-01-22T00:56:24.822Z,1.72
2023-01-22T00:58:58.563Z,1.68
2023-01-22T01:01:30.410Z,1.60
2023-01-22T01:04:02.939Z,1.63
2023-01-22T01:06:34.660Z,1.65
2023-01-22T01:09:06.498Z,1.68
2023-01-22T01:11:40.787Z,1.65
2023-01-22T01:14:13.588Z,1.64
2023-01-22T01:16:46.171Z,1.65
2023-01-22T01:19:20.193Z,1.71
2023-01-22T01:21:55.503Z,1.75
2023-01-22T01:24:28.321Z,1.82
2023-01-22T01:27:00.099Z,1.85
2023-01-22T01:29:46.800Z,1.89
2023-01-22T01:32:18.562Z,1.84
2023-01-22T01:34:52.833Z,1.82
2023-01-22T01:37:27.503Z,1.84
2023-01-22T01:40:00.118Z,1.69
2023-01-22T01:42:34.995Z,1.71
2023-01-22T01:45:18.759Z,1.70
2023-01-22T01:47:54.828Z,1.71
2023-01-22T01:50:28.057Z,1.73
2023-01-22T01:53:01.290Z,1.77
2023-01-22T01:55:35.481Z,1.76
2023-01-22T01:58:11.261Z,1.79
2023-01-22T02:00:44.647Z,1.78
2023-01-22T02:03:16.907Z,1.79
2023-01-22T02:05:48.579Z,1.82
2023-01-22T02:08:25.295Z,1.82
2023-01-22T02:10:57.225Z,1.67
2023-01-22T02:13:32.459Z,1.65
2023-01-22T02:16:05.997Z,1.60
2023-01-22T02:18:38.510Z,1.64
2023-01-22T02:21:39.165Z,1.57
2023-01-22T02:24:16.884Z,1.57
2023-01-22T02:26:48.466Z,1.59
2023-01-22T02:29:27.969Z,1.52
2023-01-22T02:31:59.658Z,1.49
2023-01-22T02:34:32.055Z,1.41
2023-01-22T02:37:05.343Z,1.36
2023-01-22T02:39:37.339Z,1.34
2023-01-22T02:42:10.587Z,1.39
2023-01-22T02:44:43.399Z,1.36
2023-01-22T02:47:15.077Z,1.36
2023-01-22T02:49:46.810Z,1.48
2023-01-22T02:52:27.296Z,1.52
2023-01-22T02:54:59.120Z,1.52
2023-01-22T02:57:31.447Z,1.57
2023-01-22T03:00:04.420Z,1.63
2023-01-22T03:02:36.649Z,1.63
2023-01-22T03:05:08.470Z,1.65
2023-01-22T03:07:47.537Z,1.69
2023-01-22T03:10:21.387Z,1.72
2023-01-22T03:13:11.857Z,1.66
2023-01-22T03:16:04.502Z,1.58
2023-01-22T03:18:59.606Z,1.43
2023-01-22T03:21:31.355Z,1.40
2023-01-22T03:24:03.065Z,1.36
2023-01-22T03:26:38.501Z,1.31
2023-01-22T03:29:10.325Z,1.30
2023-01-22T03:31:48.207Z,1.36
2023-01-22T03:34:21.608Z,1.31
2023-01-22T03:36:53.396Z,1.30
2023-01-22T03:39:28.907Z,1.34
2023-01-22T03:42:00.823Z,1.42
2023-01-22T03:44:32.806Z,1.51
2023-01-22T03:47:04.553Z,1.60
2023-01-22T03:49:39.328Z,1.50
2023-01-22T03:52:11.224Z,1.40
2023-01-22T03:54:44.809Z,1.46
2023-01-22T03:57:17.048Z,1.54
2023-01-22T03:59:48.833Z,1.54
2023-01-22T04:02:21.775Z,1.52
2023-01-22T04:05:09.329Z,1.49
2023-01-22T04:07:42.834Z,1.54
2023-01-22T04:10:16.785Z,1.63
2023-01-22T04:12:49.630Z,1.67
2023-01-22T04:15:24.975Z,1.69
2023-01-22T04:17:58.879Z,1.67
2023-01-22T04:20:49.451Z,1.71
2023-01-22T04:23:35.807Z,1.77
2023-01-22T04:26:07.751Z,1.76
2023-01-22T04:28:39.543Z,1.70
2023-01-22T04:31:11.557Z,1.60
2023-01-22T04:33:56.375Z,1.60
2023-01-22T04:36:32.970Z,1.62
2023-01-22T04:39:05.109Z,1.72
2023-01-22T04:41:37.706Z,1.68
2023-01-22T04:44:09.466Z,1.61
2023-01-22T04:46:41.226Z,1.51
2023-01-22T04:49:12.897Z,1.56
2023-01-22T04:51:45.597Z,1.60
2023-01-22T04:54:17.640Z,1.61
2023-01-22T04:56:53.213Z,1.63
2023-01-22T04:59:25.162Z,1.61
2023-01-22T05:01:56.920Z,1.56
2023-01-22T05:04:28.870Z,1.60
2023-01-22T05:07:01.186Z,1.67
2023-01-22T05:09:33.035Z,1.67
2023-01-22T05:12:06.312Z,1.69
2023-01-22T05:14:44.488Z,1.74
2023-01-22T05:17:16.439Z,1.83
2023-01-22T05:19:48.862Z,1.88
2023-01-22T05:22:25.661Z,1.88
2023-01-22T05:25:00.604Z,1.86
2023-01-22T05:27:35.488Z,1.89
2023-01-22T05:30:13.589Z,1.94
2023-01-22T05:33:05.636Z,1.92
2023-01-22T05:35:37.271Z,1.93
2023-01-22T05:38:10.002Z,1.96
2023-01-22T05:40:43.084Z,1.94
2023-01-22T05:43:14.902Z,1.96
2023-01-22T05:45:50.948Z,1.92
2023-01-22T05:48:47.268Z,1.90
2023-01-22T05:51:34.722Z,1.77
2023-01-22T05:54:06.716Z,1.73
2023-01-22T05:56:41.459Z,1.69
2023-01-22T05:59:13.441Z,1.65
2023-01-22T06:01:46.937Z,1.70
2023-01-22T06:04:20.150Z,1.79
2023-01-22T06:06:51.878Z,1.88
2023-01-22T06:09:25.847Z,1.96
2023-01-22T06:12:00.756Z,1.97
2023-01-22T06:14:32.495Z,1.93
2023-01-22T06:17:05.534Z,1.92
2023-01-22T06:19:46.641Z,1.91
2023-01-22T06:22:22.013Z,1.88
2023-01-22T06:25:03.341Z,1.87
2023-01-22T06:27:53.112Z,1.82
2023-01-22T06:30:24.830Z,1.85
2023-01-22T06:32:58.076Z,1.83
2023-01-22T06:35:29.853Z,1.79
2023-01-22T06:38:01.827Z,1.80
2023-01-22T06:40:37.091Z,1.79
2023-01-22T06:43:10.928Z,1.81
2023-01-22T06:45:43.572Z,1.84
2023-01-22T06:48:16.512Z,1.87
2023-01-22T06:50:51.493Z,1.92
2023-01-22T06:53:23.162Z,1.96
2023-01-22T06:55:55.284Z,1.97
2023-01-22T06:58:27.880Z,1.99
2023-01-22T07:01:04.924Z,1.97
2023-01-22T07:03:36.672Z,1.88
2023-01-22T07:06:09.887Z,1.84
2023-01-22T07:08:41.528Z,1.83
2023-01-22T07:11:14.551Z,1.84
2023-01-22T07:13:46.277Z,1.84
2023-01-22T07:16:18.820Z,1.84
2023-01-22T07:18:50.526Z,1.85
2023-01-22T07:21:29.146Z,1.82
2023-01-22T07:24:03.849Z,1.77
2023-01-22T07:26:36.323Z,1.77
2023-01-22T07:29:11.051Z,1.77
2023-01-22T07:31:48.687Z,1.78
2023-01-22T07:34:21.362Z,1.77
2023-01-22T07:36:53.226Z,1.75
2023-01-22T07:39:24.928Z,1.75
2023-01-22T07:42:01.190Z,1.78
2023-01-22T07:44:37.014Z,1.66
2023-01-22T07:47:09.154Z,1.60
2023-01-22T07:49:40.850Z,1.47
2023-01-22T07:52:13.370Z,1.46
2023-01-22T07:54:45.082Z,1.40
2023-01-22T07:57:19.654Z,1.41
2023-01-22T07:59:51.308Z,1.43
2023-01-22T08:02:23.030Z,1.51
2023-01-22T08:04:54.698Z,1.55
2023-01-22T08:07:27.778Z,1.53
2023-01-22T08:09:59.704Z,1.53
2023-01-22T08:12:31.454Z,1.53
2023-01-22T08:15:03.458Z,1.50
2023-01-22T08:17:36.142Z,1.57
2023-01-22T08:20:09.487Z,1.51
2023-01-22T08:22:41.345Z,1.50
2023-01-22T08:25:13.687Z,1.47
2023-01-22T08:27:45.366Z,1.49
2023-01-22T08:30:18.389Z,1.44
2023-01-22T08:32:51.457Z,1.45
2023-01-22T08:35:24.482Z,1.55
2023-01-22T08:38:00.093Z,1.49
2023-01-22T08:40:31.832Z,1.47
2023-01-22T08:43:03.524Z,1.47
2023-01-22T08:45:35.209Z,1.40
2023-01-22T08:48:07.111Z,1.49
2023-01-22T08:50:38.771Z,1.57
2023-01-22T08:53:13.658Z,1.57
2023-01-22T08:55:51.340Z,1.62
2023-01-22T08:58:26.399Z,1.56
2023-01-22T09:00:58.323Z,1.59
2023-01-22T09:03:30.042Z,1.69
2023-01-22T09:06:01.730Z,1.70
2023-01-22T09:08:33.370Z,1.67
2023-01-22T09:11:05.961Z,1.74
2023-01-22T09:13:39.737Z,1.71
2023-01-22T09:16:12.360Z,1.72
2023-01-22T09:18:45.355Z,1.73
2023-01-22T09:21:17.124Z,1.76
2023-01-22T09:23:48.908Z,1.77
2023-01-22T09:26:21.259Z,1.73
2023-01-22T09:28:53.884Z,1.80
2023-01-22T09:31:26.056Z,1.87
2023-01-22T09:33:57.838Z,1.91
2023-01-22T09:36:30.400Z,1.93
2023-01-22T09:39:02.918Z,1.95
2023-01-22T09:41:38.616Z,2.03
2023-01-22T09:44:23.635Z,2.08
2023-01-22T09:47:04.831Z,2.15
2023-01-22T09:50:00.780Z,2.15
2023-01-22T09:52:36.811Z,2.05
2023-01-22T09:55:13.300Z,2.14
2023-01-22T09:57:47.624Z,2.20
2023-01-22T10:00:30.059Z,2.23
2023-01-22T10:03:07.465Z,2.30
2023-01-22T10:05:43.249Z,2.30
2023-01-22T10:08:45.103Z,2.19
2023-01-22T10:11:17.499Z,2.18
2023-01-22T10:13:55.260Z,2.14
2023-01-22T10:16:27.109Z,2.12
2023-01-22T10:19:00.603Z,2.14
2023-01-22T10:21:37.523Z,2.21
2023-01-22T10:24:12.395Z,2.27
2023-01-22T10:26:52.813Z,2.27
2023-01-22T10:29:27.459Z,2.27
2023-01-22T10:32:03.255Z,2.22
2023-01-22T10:34:36.588Z,2.20
2023-01-22T10:37:15.495Z,2.17
2023-01-22T10:39:48.339Z,2.23
2023-01-22T10:42:25.960Z,2.33
2023-01-22T10:45:11.475Z,2.43
2023-01-22T10:47:43.177Z,2.44
2023-01-22T10:50:16.613Z,2.45
2023-01-22T10:52:54.891Z,2.46
2023-01-22T10:55:31.071Z,2.44
2023-01-22T10:58:07.798Z,2.48
2023-01-22T11:00:51.510Z,2.49
2023-01-22T11:03:39.289Z,2.53
2023-01-22T11:06:17.150Z,2.60
2023-01-22T11:08:56.886Z,2.62
2023-01-22T11:11:35.934Z,2.47
2023-01-22T11:14:15.640Z,2.43
2023-01-22T11:16:51.152Z,2.52
2023-01-22T11:19:36.918Z,2.64
2023-01-22T11:22:22.351Z,2.66
2023-01-22T11:24:54.202Z,2.73
2023-01-22T11:27:44.022Z,2.75
2023-01-22T11:30:43.005Z,2.74
2023-01-22T11:33:33.179Z,2.65
2023-01-22T11:36:19.603Z,2.44
2023-01-22T11:39:00.961Z,2.38
2023-01-22T11:42:10.192Z,2.44
2023-01-22T11:45:20.072Z,2.52
2023-01-22T11:47:54.353Z,2.56
2023-01-22T11:50:28.200Z,2.68
2023-01-22T11:53:47.538Z,3.14
2023-01-22T11:56:49.886Z,3.36
2023-01-22T12:00:06.338Z,3.41
2023-01-22T12:02:46.760Z,3.41
2023-01-22T12:05:36.855Z,3.37
2023-01-22T12:08:32.442Z,3.23
2023-01-22T12:11:22.793Z,3.09
2023-01-22T12:14:10.648Z,2.95
2023-01-22T12:16:57.194Z,2.91
2023-01-22T12:19:58.904Z,2.82
2023-01-22T12:22:50.373Z,2.72
2023-01-22T12:25:45.124Z,2.63
2023-01-22T12:28:21.461Z,2.48
2023-01-22T12:31:27.022Z,2.47
2023-01-22T12:34:04.065Z,2.35
2023-01-22T12:36:36.748Z,2.22
2023-01-22T12:39:15.383Z,2.19
2023-01-22T12:42:05.748Z,2.28
2023-01-22T12:44:50.784Z,2.25
2023-01-22T12:47:46.759Z,2.38
2023-01-22T12:50:21.909Z,2.51
2023-01-22T12:53:05.407Z,2.53
2023-01-22T12:55:44.355Z,2.54
2023-01-22T12:58:25.850Z,2.50
2023-01-22T13:01:09.444Z,2.33
2023-01-22T13:03:42.135Z,2.36
2023-01-22T13:06:40.918Z,2.27
2023-01-22T13:09:25.083Z,2.11
2023-01-22T13:12:08.376Z,2.03
2023-01-22T13:14:42.881Z,2.03
2023-01-22T13:17:21.446Z,2.06
2023-01-22T13:19:54.218Z,2.03
2023-01-22T13:22:28.292Z,2.09
2023-01-22T13:24:59.963Z,2.10
2023-01-22T13:27:36.357Z,2.13
2023-01-22T13:30:16.270Z,2.18
2023-01-22T13:32:48.200Z,2.22
2023-01-22T13:35:20.648Z,2.12
2023-01-22T13:37:52.580Z,2.06
2023-01-22T13:40:27.261Z,2.04
2023-01-22T13:43:00.314Z,2.04
2023-01-22T13:45:33.437Z,2.10
2023-01-22T13:48:15.737Z,2.13
2023-01-22T13:51:00.867Z,2.11
2023-01-22T13:53:40.810Z,2.02
2023-01-22T13:56:18.401Z,2.04
2023-01-22T13:58:50.585Z,2.00
2023-01-22T14:01:31.449Z,2.03
2023-01-22T14:04:23.109Z,2.09
2023-01-22T14:06:55.058Z,2.16
2023-01-22T14:09:32.962Z,2.19
2023-01-22T14:12:17.160Z,2.18
2023-01-22T14:14:49.464Z,2.11
2023-01-22T14:17:32.262Z,2.10
2023-01-22T14:20:05.648Z,2.09
2023-01-22T14:22:37.334Z,2.10
2023-01-22T14:25:12.818Z,2.17
2023-01-22T14:27:47.319Z,2.24
2023-01-22T14:30:21.751Z,2.64
2023-01-22T14:32:53.671Z,2.83
2023-01-22T14:35:27.145Z,2.77
2023-01-22T14:37:58.854Z,2.74
2023-01-22T14:40:31.070Z,2.71
2023-01-22T14:43:03.580Z,2.62
2023-01-22T14:45:35.945Z,2.49
2023-01-22T14:48:07.769Z,2.43
2023-01-22T14:50:40.675Z,2.33
2023-01-22T14:53:13.618Z,2.17
2023-01-22T14:55:48.350Z,2.18
2023-01-22T14:58:20.061Z,2.10
2023-01-22T15:00:51.777Z,2.08
2023-01-22T15:03:24.091Z,2.07
2023-01-22T15:05:55.817Z,2.05
2023-01-22T15:08:27.438Z,2.01
2023-01-22T15:11:00.692Z,1.90
2023-01-22T15:13:35.482Z,1.83
2023-01-22T15:16:08.267Z,1.83
2023-01-22T15:18:40.983Z,1.91
2023-01-22T15:21:12.669Z,1.98
2023-01-22T15:23:44.275Z,2.09
2023-01-22T15:26:35.515Z,2.12
2023-01-22T15:29:10.600Z,2.15
2023-01-22T15:31:43.044Z,2.14
2023-01-22T15:34:15.686Z,2.17
2023-01-22T15:36:47.476Z,2.19
2023-01-22T15:39:19.274Z,2.12
2023-01-22T15:41:50.936Z,2.03
2023-01-22T15:44:22.666Z,1.98
2023-01-22T15:46:56.129Z,1.94
2023-01-22T15:49:27.909Z,1.92
2023-01-22T15:51:59.692Z,1.97
2023-01-22T15:54:31.372Z,1.96
2023-01-22T15:57:03.179Z,2.00
2023-01-22T15:59:37.905Z,2.02
2023-01-22T16:02:10.962Z,1.96
2023-01-22T16:04:42.695Z,1.90
2023-01-22T16:07:14.498Z,1.92
2023-01-22T16:09:46.245Z,1.87
2023-01-22T16:12:18.570Z,1.87
2023-01-22T16:14:50.300Z,1.90
2023-01-22T16:17:22.689Z,1.96
2023-01-22T16:19:54.373Z,2.00
2023-01-22T16:22:26.062Z,1.94
2023-01-22T16:24:57.734Z,1.88
2023-01-22T16:27:29.519Z,1.86
2023-01-22T16:30:01.263Z,1.92
2023-01-22T16:32:34.475Z,2.00
2023-01-22T16:35:06.588Z,2.00
2023-01-22T16:37:38.606Z,2.03
2023-01-22T16:40:12.007Z,2.05
2023-01-22T16:42:59.469Z,2.02
2023-01-22T16:45:34.883Z,1.91
2023-01-22T16:48:07.455Z,1.90
2023-01-22T16:50:39.172Z,1.96
2023-01-22T16:53:10.934Z,2.00
2023-01-22T16:55:42.614Z,2.04
2023-01-22T16:58:14.285Z,2.09
2023-01-22T17:00:47.408Z,2.04
2023-01-22T17:03:19.149Z,2.07
2023-01-22T17:05:54.860Z,2.06
2023-01-22T17:08:27.164Z,2.00
2023-01-22T17:10:58.877Z,1.86
2023-01-22T17:13:31.966Z,1.82
2023-01-22T17:16:04.595Z,1.72
2023-01-22T17:18:37.804Z,1.69
2023-01-22T17:21:13.016Z,1.76
2023-01-22T17:23:45.926Z,1.83
2023-01-22T17:26:17.943Z,1.87
2023-01-22T17:28:50.050Z,1.89
2023-01-22T17:31:24.093Z,1.82
2023-01-22T17:33:55.982Z,1.85
2023-01-22T17:36:28.499Z,1.88
2023-01-22T17:39:01.732Z,1.98
2023-01-22T17:41:34.015Z,1.97
2023-01-22T17:44:05.781Z,1.89
2023-01-22T17:46:37.962Z,1.89
2023-01-22T17:49:12.356Z,1.85
2023-01-22T17:51:44.095Z,1.84
2023-01-22T17:54:16.262Z,1.84
2023-01-22T17:56:51.037Z,1.87
2023-01-22T17:59:23.817Z,1.87
2023-01-22T18:01:55.559Z,1.88
2023-01-22T18:04:30.020Z,1.91
2023-01-22T18:07:03.878Z,1.89
2023-01-22T18:09:36.428Z,1.83
2023-01-22T18:12:08.836Z,1.83
2023-01-22T18:14:40.525Z,1.87
2023-01-22T18:17:12.230Z,1.88
2023-01-22T18:19:43.941Z,1.86
2023-01-22T18:22:15.673Z,1.88
2023-01-22T18:24:47.413Z,1.96
2023-01-22T18:27:19.141Z,2.00
2023-01-22T18:29:50.850Z,1.99
2023-01-22T18:32:22.539Z,2.02
2023-01-22T18:34:57.031Z,2.07
2023-01-22T18:37:28.724Z,2.11
2023-01-22T18:40:00.874Z,2.13
2023-01-22T18:42:32.719Z,2.07
2023-01-22T18:45:04.964Z,2.04
2023-01-22T18:47:39.209Z,2.09
2023-01-22T18:50:18.005Z,2.11
2023-01-22T18:52:49.855Z,2.14
2023-01-22T18:55:22.315Z,2.17
2023-01-22T18:57:57.007Z,2.17
2023-01-22T19:00:28.821Z,2.10
2023-01-22T19:03:01.204Z,1.96
2023-01-22T19:05:35.525Z,1.84
2023-01-22T19:08:07.212Z,1.86
2023-01-22T19:10:38.912Z,1.91
2023-01-22T19:13:12.117Z,1.86
2023-01-22T19:15:45.209Z,1.80
2023-01-22T19:18:16.886Z,1.80
2023-01-22T19:20:48.700Z,1.82
2023-01-22T19:23:21.138Z,1.84
2023-01-22T19:25:57.064Z,1.82
2023-01-22T19:28:28.725Z,1.87
2023-01-22T19:31:00.537Z,1.78
2023-01-22T19:33:34.647Z,1.73
2023-01-22T19:36:06.862Z,1.68
2023-01-22T19:38:39.881Z,1.74
2023-01-22T19:41:11.832Z,1.78
2023-01-22T19:43:46.925Z,1.80
2023-01-22T19:46:18.932Z,1.72
2023-01-22T19:48:53.626Z,1.70
2023-01-22T19:51:27.674Z,1.75
2023-01-22T19:54:00.802Z,1.78
2023-01-22T19:56:35.603Z,1.77
2023-01-22T19:59:08.601Z,1.75
2023-01-22T20:01:41.550Z,1.75
2023-01-22T20:04:25.318Z,1.78
2023-01-22T20:07:00.702Z,1.70
2023-01-22T20:09:34.754Z,1.57
2023-01-22T20:12:08.600Z,1.53
2023-01-22T20:14:43.283Z,1.52
2023-01-22T20:17:18.036Z,1.50
2023-01-22T20:19:49.708Z,1.57
2023-01-22T20:22:21.488Z,1.59
2023-01-22T20:24:54.122Z,1.66
2023-01-22T20:27:25.939Z,1.75
2023-01-22T20:29:57.664Z,1.84
2023-01-22T20:32:30.404Z,1.89
2023-01-22T20:35:02.109Z,1.91
2023-01-22T20:37:33.964Z,1.90
2023-01-22T20:40:06.157Z,1.84
2023-01-22T20:42:38.479Z,1.82
2023-01-22T20:45:10.643Z,1.75
2023-01-22T20:47:42.798Z,1.71
2023-01-22T20:50:14.515Z,1.71
2023-01-22T20:52:47.044Z,1.76
2023-01-22T20:55:19.824Z,1.75
2023-01-22T20:57:51.842Z,1.84
2023-01-22T21:00:24.063Z,1.84
2023-01-22T21:02:55.821Z,1.89
2023-01-22T21:05:28.729Z,1.82
2023-01-22T21:08:01.847Z,1.73
2023-01-22T21:10:37.509Z,1.73
2023-01-22T21:13:09.208Z,1.72
2023-01-22T21:15:46.819Z,1.80
2023-01-22T21:18:19.009Z,1.88
2023-01-22T21:20:50.758Z,1.95
2023-01-22T21:23:22.436Z,2.02
2023-01-22T21:25:54.082Z,2.04
2023-01-22T21:28:25.775Z,2.06
2023-01-22T21:31:05.926Z,2.11
2023-01-22T21:33:38.735Z,2.19
2023-01-22T21:36:12.074Z,2.21
2023-01-22T21:38:48.303Z,2.17
2023-01-22T21:41:20.042Z,2.03
2023-01-22T21:44:10.645Z,2.05
2023-01-22T21:46:46.905Z,2.09
2023-01-22T21:49:23.424Z,2.04
2023-01-22T21:52:00.382Z,2.01
2023-01-22T21:54:38.630Z,2.02
2023-01-22T21:57:16.922Z,2.09
2023-01-22T21:59:48.618Z,2.10
2023-01-22T22:02:20.619Z,1.93
2023-01-22T22:04:53.491Z,1.84
2023-01-22T22:07:27.097Z,1.85
2023-01-22T22:09:58.835Z,1.89
2023-01-22T22:12:33.369Z,1.95
2023-01-22T22:15:05.899Z,2.04
2023-01-22T22:17:38.544Z,2.08
2023-01-22T22:20:13.114Z,1.98
2023-01-22T22:22:45.939Z,1.94
2023-01-22T22:25:17.803Z,1.92
2023-01-22T22:27:50.755Z,1.95
2023-01-22T22:30:22.533Z,2.00
2023-01-22T22:32:58.836Z,2.04
2023-01-22T22:35:30.932Z,2.04
2023-01-22T22:38:02.954Z,1.90
2023-01-22T22:40:36.824Z,1.88
2023-01-22T22:43:09.344Z,1.94
2023-01-22T22:45:44.024Z,2.02
2023-01-22T22:48:15.701Z,2.06
2023-01-22T22:50:47.424Z,1.97
2023-01-22T22:53:19.894Z,1.85
2023-01-22T22:55:53.614Z,1.75
2023-01-22T22:58:25.263Z,1.75
2023-01-22T23:00:57.302Z,1.76
2023-01-22T23:03:31.423Z,1.84
2023-01-22T23:06:10.418Z,1.88
2023-01-22T23:08:44.450Z,1.96
2023-01-22T23:11:16.157Z,2.03
2023-01-22T23:13:49.494Z,2.09
2023-01-22T23:16:22.650Z,2.11
2023-01-22T23:18:54.423Z,2.12
2023-01-22T23:21:27.090Z,2.03
2023-01-22T23:23:58.812Z,1.98
2023-01-22T23:26:31.743Z,1.93
2023-01-22T23:29:07.337Z,1.92
2023-01-22T23:31:40.089Z,1.97
2023-01-22T23:34:14.325Z,1.96
2023-01-22T23:36:47.343Z,1.98
2023-01-22T23:39:20.501Z,2.03
2023-01-22T23:41:52.266Z,2.09
2023-01-22T23:44:23.924Z,2.15
2023-01-22T23:46:55.604Z,2.20
2023-01-22T23:49:27.295Z,2.11
2023-01-22T23:52:00.105Z,2.05
2023-01-22T23:54:31.786Z,2.05
2023-01-22T23:57:04.795Z,2.03
2023-01-22T23:59:37.505Z,2.03
